Time;durP1;ratioP1;P1;durP2;ratioP2;P2;SDS_P1;SDS_P2;PMS_P1;PMS_P2;Temp;Humidity;BMP_temperature;BMP_pressure;BME280_temperature;BME280_humidity;BME280_pressure;Samples;Min_cycle;Max_cycle;Signal;HPM_P1;HPM_P2
2021/10/17 00:01:15;;;;;;;103.47;92.17;;;5.70;99.90;;;;;;5057023;28;20647;-81
2021/10/17 00:03:41;;;;;;;110.60;98.87;;;5.70;99.90;;;;;;5057473;28;20520;-80
2021/10/17 00:06:07;;;;;;;131.50;119.13;;;5.60;99.90;;;;;;5057628;28;20247;-81
2021/10/17 00:08:32;;;;;;;118.43;106.63;;;5.60;99.90;;;;;;5039286;28;20188;-81
2021/10/17 00:10:58;;;;;;;122.07;109.97;;;5.70;99.90;;;;;;5057268;28;20899;-81
2021/10/17 00:13:24;;;;;;;124.27;112.27;;;5.70;99.90;;;;;;5057433;28;20228;-81
2021/10/17 00:15:50;;;;;;;113.70;101.70;;;5.60;99.90;;;;;;5057311;28;20618;-81
2021/10/17 00:18:15;;;;;;;113.67;101.57;;;5.60;99.90;;;;;;5057255;28;20728;-81
2021/10/17 00:20:41;;;;;;;105.80;94.30;;;5.60;99.90;;;;;;5057140;28;20195;-80
2021/10/17 00:23:10;;;;;;;126.60;113.43;;;5.60;99.90;;;;;;5071084;22;20172;-83
2021/10/17 00:25:36;;;;;;;125.03;112.68;;;5.50;99.90;;;;;;5056715;28;20846;-83
2021/10/17 00:28:05;;;;;;;125.60;113.43;;;5.50;99.90;;;;;;5056796;28;20184;-83
2021/10/17 00:30:30;;;;;;;111.97;100.32;;;5.50;99.90;;;;;;5056736;28;20430;-82
2021/10/17 00:32:56;;;;;;;118.07;105.90;;;5.40;99.90;;;;;;5055532;28;20175;-83
2021/10/17 00:35:22;;;;;;;127.10;114.70;;;5.40;99.90;;;;;;5056289;28;20725;-82
2021/10/17 00:37:48;;;;;;;126.27;114.00;;;5.40;99.90;;;;;;5056886;28;20180;-82
2021/10/17 00:40:17;;;;;;;141.83;128.83;;;5.40;99.90;;;;;;5054713;28;20403;-82
2021/10/17 00:42:45;;;;;;;123.78;111.50;;;5.40;99.90;;;;;;5054591;28;20790;-82
2021/10/17 00:45:17;;;;;;;149.63;136.48;;;5.40;99.90;;;;;;5055601;28;20175;-82
2021/10/17 00:47:43;;;;;;;126.65;114.30;;;5.30;99.90;;;;;;5055887;28;20729;-82
2021/10/17 00:50:10;;;;;;;113.07;101.22;;;5.40;99.90;;;;;;5055199;28;20236;-82
2021/10/17 00:52:37;;;;;;;114.45;102.88;;;5.40;99.90;;;;;;5055097;28;20168;-82
2021/10/17 00:55:04;;;;;;;122.43;109.85;;;5.40;99.90;;;;;;5056003;28;20203;-82
2021/10/17 00:57:32;;;;;;;119.80;107.78;;;5.40;99.90;;;;;;5057412;28;20667;-82
2021/10/17 00:59:57;;;;;;;128.68;116.65;;;5.40;99.90;;;;;;5056350;28;20161;-82
2021/10/17 01:02:23;;;;;;;157.90;144.23;;;5.30;99.90;;;;;;5054783;28;20264;-82
2021/10/17 01:04:49;;;;;;;136.40;123.80;;;5.30;99.90;;;;;;5056587;28;20169;-82
2021/10/17 01:07:15;;;;;;;144.17;130.93;;;5.30;99.90;;;;;;5054636;28;20438;-82
2021/10/17 01:09:41;;;;;;;142.10;129.30;;;5.20;99.90;;;;;;5056170;28;20165;-82
2021/10/17 01:12:07;;;;;;;147.35;134.32;;;5.20;99.90;;;;;;5055964;28;20884;-82
2021/10/17 01:14:33;;;;;;;148.90;135.77;;;5.10;99.90;;;;;;5055852;28;20662;-82
2021/10/17 01:16:59;;;;;;;161.73;147.85;;;5.20;99.90;;;;;;5055901;28;20236;-82
2021/10/17 01:19:25;;;;;;;145.60;132.52;;;5.20;99.90;;;;;;5056219;28;20230;-82
2021/10/17 01:21:52;;;;;;;114.93;103.07;;;5.30;99.90;;;;;;5056445;28;20648;-82
2021/10/17 01:24:18;;;;;;;104.47;88.32;;;5.40;99.90;;;;;;5054553;28;20226;-82
2021/10/17 01:26:45;;;;;;;95.75;66.03;;;5.50;99.90;;;;;;5055795;28;20165;-82
2021/10/17 01:29:11;;;;;;;100.10;80.65;;;5.60;99.90;;;;;;5055716;28;20192;-83
2021/10/17 01:31:38;;;;;;;97.43;77.45;;;5.60;99.90;;;;;;5056349;28;20175;-82
2021/10/17 01:34:09;;;;;;;114.88;102.55;;;5.70;99.90;;;;;;5055688;28;20214;-82
2021/10/17 01:36:36;;;;;;;127.40;114.88;;;5.80;99.90;;;;;;5054479;28;20271;-83
2021/10/17 01:39:04;;;;;;;130.48;118.18;;;5.70;99.90;;;;;;5055641;28;20189;-82
2021/10/17 01:41:30;;;;;;;132.18;119.38;;;5.70;99.90;;;;;;5055293;28;20161;-82
2021/10/17 01:44:31;;;;;;;154.07;141.07;;;5.70;99.90;;;;;;5054320;28;20513;-83
2021/10/17 01:46:58;;;;;;;164.80;150.85;;;5.60;99.90;;;;;;5055518;28;20159;-82
2021/10/17 01:49:24;;;;;;;157.73;144.48;;;5.60;99.90;;;;;;5055466;28;20169;-83
2021/10/17 01:51:50;;;;;;;177.93;163.30;;;5.60;99.90;;;;;;5055333;28;20161;-83
2021/10/17 01:54:15;;;;;;;175.80;161.90;;;5.60;99.90;;;;;;5058890;28;20161;-83
2021/10/17 01:56:41;;;;;;;183.43;169.13;;;5.60;99.90;;;;;;5058731;28;20199;-82
2021/10/17 01:59:07;;;;;;;159.13;146.03;;;5.60;99.90;;;;;;5059183;28;20612;-83
2021/10/17 02:01:33;;;;;;;180.27;166.03;;;5.60;99.90;;;;;;5059142;28;20247;-82
2021/10/17 02:04:00;;;;;;;204.03;188.60;;;5.60;99.90;;;;;;5059547;28;20402;-83
2021/10/17 02:06:27;;;;;;;178.63;164.60;;;5.60;99.90;;;;;;5057686;28;20199;-82
2021/10/17 02:08:56;;;;;;;170.85;157.05;;;5.50;99.90;;;;;;5058483;28;20532;-82
2021/10/17 02:11:22;;;;;;;145.13;132.27;;;5.50;99.90;;;;;;5058715;28;20239;-83
2021/10/17 02:13:48;;;;;;;145.23;132.53;;;5.50;99.90;;;;;;5058304;28;20165;-83
2021/10/17 02:16:14;;;;;;;152.70;139.53;;;5.50;99.90;;;;;;5059046;28;20192;-82
2021/10/17 02:18:39;;;;;;;149.03;136.00;;;5.50;99.90;;;;;;5058911;28;20904;-83
2021/10/17 02:21:05;;;;;;;174.13;160.00;;;5.40;99.90;;;;;;5057844;28;20259;-83
2021/10/17 02:23:32;;;;;;;174.73;160.20;;;5.40;99.90;;;;;;5058872;28;20169;-83
2021/10/17 02:25:58;;;;;;;157.90;144.55;;;5.30;99.90;;;;;;5057230;28;20207;-83
2021/10/17 02:28:24;;;;;;;178.37;164.57;;;5.30;99.90;;;;;;5058279;28;20192;-83
2021/10/17 02:30:49;;;;;;;152.30;138.13;;;5.30;99.90;;;;;;5058855;28;20403;-82
2021/10/17 02:33:15;;;;;;;137.43;124.90;;;5.30;99.90;;;;;;5059306;28;20640;-83
2021/10/17 02:35:41;;;;;;;127.43;115.57;;;5.30;99.90;;;;;;5058726;28;20453;-83
2021/10/17 02:38:07;;;;;;;143.53;130.70;;;5.20;99.90;;;;;;5056551;28;20446;-83
2021/10/17 02:40:33;;;;;;;158.80;145.20;;;5.20;99.90;;;;;;5057146;28;20407;-83
2021/10/17 02:43:01;;;;;;;150.33;137.23;;;5.10;99.90;;;;;;5058218;28;20628;-83
2021/10/17 02:45:30;;;;;;;165.57;152.25;;;5.10;99.90;;;;;;5058465;28;20790;-83
2021/10/17 02:47:55;;;;;;;162.48;149.20;;;5.00;99.90;;;;;;5056729;28;20188;-83
2021/10/17 02:50:21;;;;;;;159.50;145.83;;;5.00;99.90;;;;;;5058484;28;20168;-83
2021/10/17 02:52:47;;;;;;;156.47;143.57;;;4.90;99.90;;;;;;5058745;28;20169;-83
2021/10/17 02:55:12;;;;;;;162.90;149.33;;;4.90;99.90;;;;;;5058169;28;20223;-83
2021/10/17 02:57:38;;;;;;;153.97;140.47;;;4.90;99.90;;;;;;5058330;28;20203;-83
2021/10/17 03:00:04;;;;;;;171.20;157.60;;;4.90;99.90;;;;;;5058112;28;20294;-83
2021/10/17 03:02:30;;;;;;;168.98;155.38;;;4.90;99.90;;;;;;5058376;28;20171;-83
2021/10/17 03:04:56;;;;;;;167.93;153.83;;;4.90;99.90;;;;;;5055484;28;20168;-83
2021/10/17 03:07:21;;;;;;;161.63;148.37;;;4.80;99.90;;;;;;5058027;28;20279;-83
2021/10/17 03:09:47;;;;;;;197.90;183.33;;;4.80;99.90;;;;;;5058644;28;20192;-83
2021/10/17 03:12:13;;;;;;;169.43;155.53;;;4.80;99.90;;;;;;5057964;28;20168;-83
2021/10/17 03:14:39;;;;;;;163.53;149.93;;;4.70;99.90;;;;;;5059194;28;20171;-83
2021/10/17 03:17:06;;;;;;;149.67;136.37;;;4.60;99.90;;;;;;5058844;28;20430;-83
2021/10/17 03:19:32;;;;;;;168.02;154.77;;;4.60;99.90;;;;;;5059478;28;20171;-83
2021/10/17 03:21:58;;;;;;;161.65;147.50;;;4.50;99.90;;;;;;5058084;28;20232;-83
2021/10/17 03:24:24;;;;;;;194.40;180.13;;;4.40;99.90;;;;;;5057945;28;20242;-83
2021/10/17 03:26:49;;;;;;;170.30;156.67;;;4.40;99.90;;;;;;5058152;28;20246;-83
2021/10/17 03:29:15;;;;;;;164.57;150.67;;;4.40;99.90;;;;;;5057397;28;20188;-83
2021/10/17 03:31:42;;;;;;;151.67;138.17;;;4.40;99.90;;;;;;5057246;28;20169;-83
2021/10/17 03:34:07;;;;;;;198.88;184.05;;;4.40;99.90;;;;;;5057777;28;20525;-83
2021/10/17 03:36:33;;;;;;;185.20;170.93;;;4.40;99.90;;;;;;5057662;28;20195;-83
2021/10/17 03:38:59;;;;;;;174.53;160.43;;;4.40;99.90;;;;;;5057408;28;20184;-83
2021/10/17 03:41:25;;;;;;;143.27;130.40;;;4.40;99.90;;;;;;5057665;28;20399;-83
2021/10/17 03:43:51;;;;;;;156.53;143.37;;;4.40;99.90;;;;;;5057838;28;20474;-82
2021/10/17 03:46:20;;;;;;;177.93;164.07;;;4.40;99.90;;;;;;5057307;28;20399;-83
2021/10/17 03:48:46;;;;;;;168.13;154.65;;;4.30;99.90;;;;;;5057419;28;20525;-83
2021/10/17 03:51:11;;;;;;;203.63;189.13;;;4.30;99.90;;;;;;5057521;28;20172;-83
2021/10/17 03:53:37;;;;;;;178.13;164.40;;;4.30;99.90;;;;;;5057819;28;20202;-83
2021/10/17 03:56:03;;;;;;;182.60;168.17;;;4.30;99.90;;;;;;5055808;28;20200;-83
2021/10/17 03:58:29;;;;;;;170.70;156.55;;;4.20;99.90;;;;;;5055821;28;20564;-83
2021/10/17 04:00:55;;;;;;;187.67;172.87;;;4.20;99.90;;;;;;5057306;28;20221;-83
2021/10/17 04:03:21;;;;;;;190.77;175.67;;;4.20;99.90;;;;;;5057050;28;20431;-82
2021/10/17 04:05:46;;;;;;;157.70;144.73;;;4.20;99.90;;;;;;5057073;28;20407;-83
2021/10/17 04:08:12;;;;;;;180.67;166.97;;;4.10;99.90;;;;;;5055353;28;20250;-83
2021/10/17 04:10:38;;;;;;;150.23;136.90;;;4.10;99.90;;;;;;5056460;28;20156;-83
2021/10/17 04:13:04;;;;;;;160.90;147.73;;;4.10;99.90;;;;;;5057134;28;20188;-83
2021/10/17 04:15:36;;;;;;;123.05;110.50;;;4.10;99.90;;;;;;5056523;28;20548;-83
2021/10/17 04:18:05;;;;;;;142.93;130.27;;;4.20;99.90;;;;;;5056212;28;20223;-83
2021/10/17 04:20:31;;;;;;;156.60;142.93;;;4.30;99.90;;;;;;5056948;28;20156;-83
2021/10/17 04:22:57;;;;;;;138.82;126.55;;;4.30;99.90;;;;;;5057090;28;20157;-82
2021/10/17 04:25:23;;;;;;;130.63;118.32;;;4.40;99.90;;;;;;5058944;28;20656;-83
2021/10/17 04:27:52;;;;;;;136.50;124.20;;;4.40;99.90;;;;;;5056701;28;20215;-83
2021/10/17 04:30:18;;;;;;;153.50;140.55;;;4.50;99.90;;;;;;5056756;28;20411;-83
2021/10/17 04:32:44;;;;;;;149.20;136.27;;;4.50;99.90;;;;;;5056929;28;20639;-83
2021/10/17 04:35:10;;;;;;;129.00;116.95;;;4.50;99.90;;;;;;5056161;28;20279;-83
2021/10/17 04:37:37;;;;;;;145.43;132.60;;;4.50;99.90;;;;;;5056212;28;20227;-83
2021/10/17 04:40:08;;;;;;;154.95;141.38;;;4.50;99.90;;;;;;5056108;28;20168;-83
2021/10/17 04:42:36;;;;;;;144.63;132.00;;;4.50;99.90;;;;;;5056782;28;20141;-83
2021/10/17 04:45:04;;;;;;;170.63;157.23;;;4.50;99.90;;;;;;5056139;28;20644;-83
2021/10/17 04:47:33;;;;;;;167.38;153.80;;;4.50;99.90;;;;;;5056299;28;20192;-83
2021/10/17 04:49:59;;;;;;;180.95;165.95;;;4.50;99.90;;;;;;5055918;28;20176;-83
2021/10/17 04:52:24;;;;;;;166.43;152.77;;;4.50;99.90;;;;;;5056401;28;20644;-83
2021/10/17 04:54:50;;;;;;;169.53;155.73;;;4.50;99.90;;;;;;5056640;28;20157;-83
2021/10/17 04:57:16;;;;;;;204.87;190.37;;;4.50;99.90;;;;;;5056504;28;20402;-83
2021/10/17 04:59:42;;;;;;;174.47;161.03;;;4.50;99.90;;;;;;5056773;28;20399;-83
2021/10/17 05:02:07;;;;;;;162.80;149.33;;;4.50;99.90;;;;;;5055984;28;20579;-83
2021/10/17 05:04:37;;;;;;;161.30;147.03;;;4.50;99.90;;;;;;5054608;28;20247;-83
2021/10/17 05:07:03;;;;;;;199.75;184.88;;;4.60;99.90;;;;;;5055360;28;20160;-83
2021/10/17 05:09:29;;;;;;;180.00;165.45;;;4.60;99.90;;;;;;5056014;28;20203;-83
2021/10/17 05:11:58;;;;;;;164.40;150.73;;;4.70;99.90;;;;;;5056270;28;20547;-83
2021/10/17 05:14:24;;;;;;;191.85;177.80;;;4.70;99.90;;;;;;5056404;28;20445;-83
2021/10/17 05:16:49;;;;;;;208.80;193.80;;;4.80;99.90;;;;;;5056732;28;20663;-82
2021/10/17 05:19:15;;;;;;;218.83;203.20;;;4.80;99.90;;;;;;5055328;28;20185;-83
2021/10/17 05:21:41;;;;;;;215.85;200.55;;;4.90;99.90;;;;;;5056618;28;20168;-83
2021/10/17 05:24:07;;;;;;;272.93;255.27;;;5.00;99.90;;;;;;5056369;28;20230;-83
2021/10/17 05:26:33;;;;;;;238.57;222.93;;;5.00;99.90;;;;;;5056323;28;20480;-83
2021/10/17 05:28:59;;;;;;;227.80;211.77;;;5.00;99.90;;;;;;5058690;28;20427;-83
2021/10/17 05:31:27;;;;;;;247.17;230.67;;;5.10;99.90;;;;;;5060317;28;20699;-83
2021/10/17 05:33:53;;;;;;;285.02;266.98;;;5.10;99.90;;;;;;5059882;28;20161;-83
2021/10/17 05:36:18;;;;;;;226.83;211.10;;;5.10;99.90;;;;;;5059597;28;20188;-82
2021/10/17 05:38:50;;;;;;;224.60;209.13;;;5.10;99.90;;;;;;5059478;28;20521;-83
2021/10/17 05:41:15;;;;;;;222.68;207.50;;;5.20;99.90;;;;;;5058170;28;20169;-83
2021/10/17 05:43:41;;;;;;;246.20;229.67;;;5.20;99.90;;;;;;5058700;28;20164;-83
2021/10/17 05:46:07;;;;;;;245.00;228.80;;;5.20;99.90;;;;;;5059155;28;20215;-83
2021/10/17 05:48:33;;;;;;;276.90;259.50;;;5.20;99.90;;;;;;5059419;28;20180;-83
2021/10/17 05:50:58;;;;;;;278.60;261.47;;;5.20;99.90;;;;;;5058334;28;20192;-83
2021/10/17 05:53:27;;;;;;;292.40;274.33;;;5.20;99.90;;;;;;5059416;28;20399;-83
2021/10/17 05:55:53;;;;;;;288.75;270.67;;;5.20;99.90;;;;;;5059873;28;20470;-83
2021/10/17 05:58:18;;;;;;;258.83;241.67;;;5.20;99.90;;;;;;5060007;28;20268;-83
2021/10/17 06:00:44;;;;;;;304.40;285.97;;;5.20;99.90;;;;;;5059405;28;20165;-83
2021/10/17 06:03:10;;;;;;;299.83;281.17;;;5.10;99.90;;;;;;5059529;28;20225;-83
2021/10/17 06:05:38;;;;;;;234.90;219.23;;;5.10;99.90;;;;;;5058651;28;20161;-83
2021/10/17 06:08:04;;;;;;;300.35;281.98;;;5.20;99.90;;;;;;5058794;28;20189;-83
2021/10/17 06:10:33;;;;;;;305.27;287.35;;;5.20;99.90;;;;;;5058786;28;20168;-83
2021/10/17 06:12:58;;;;;;;339.20;318.77;;;5.20;99.90;;;;;;5059080;28;20247;-83
2021/10/17 06:15:24;;;;;;;328.33;309.33;;;5.20;99.90;;;;;;5058022;28;20231;-83
2021/10/17 06:17:56;;;;;;;322.02;302.77;;;5.20;99.90;;;;;;5059561;28;20597;-83
2021/10/17 06:20:21;;;;;;;306.05;287.55;;;5.20;99.90;;;;;;5058918;28;20251;-83
2021/10/17 06:22:51;;;;;;;328.40;309.47;;;5.20;99.90;;;;;;5059147;28;20219;-83
2021/10/17 06:25:17;;;;;;;327.95;309.08;;;5.30;99.90;;;;;;5073233;22;20228;-81
2021/10/17 06:27:42;;;;;;;343.90;324.65;;;5.30;99.90;;;;;;5058873;28;20541;-82
2021/10/17 06:30:11;;;;;;;296.20;278.47;;;5.40;99.90;;;;;;5058776;28;20176;-81
2021/10/17 06:32:37;;;;;;;280.27;262.85;;;5.40;99.90;;;;;;5057846;28;20543;-82
2021/10/17 06:35:03;;;;;;;332.67;313.30;;;5.40;99.90;;;;;;5059295;28;20272;-81
2021/10/17 06:37:29;;;;;;;322.30;303.55;;;5.40;99.90;;;;;;5057360;28;20184;-81
2021/10/17 06:39:54;;;;;;;305.37;287.63;;;5.40;99.90;;;;;;5058575;28;20161;-81
2021/10/17 06:42:20;;;;;;;316.40;297.40;;;5.30;99.90;;;;;;5059234;28;20161;-81
2021/10/17 06:44:46;;;;;;;306.67;288.90;;;5.40;99.90;;;;;;5058243;28;20190;-82
2021/10/17 06:47:11;;;;;;;305.13;286.50;;;5.40;99.90;;;;;;5057582;28;20636;-81
2021/10/17 06:49:37;;;;;;;340.77;320.87;;;5.40;99.90;;;;;;5058271;28;20175;-81
2021/10/17 06:52:04;;;;;;;311.75;293.25;;;5.40;99.90;;;;;;5056396;28;20173;-81
2021/10/17 06:54:29;;;;;;;298.95;281.13;;;5.40;99.90;;;;;;5057587;28;20186;-82
2021/10/17 06:56:55;;;;;;;376.80;355.73;;;5.50;99.90;;;;;;5058551;28;20275;-82
2021/10/17 06:59:21;;;;;;;316.00;297.47;;;5.50;99.90;;;;;;5058919;28;20191;-82
2021/10/17 07:01:46;;;;;;;338.13;318.53;;;5.50;99.90;;;;;;5057826;28;20265;-82
2021/10/17 07:04:12;;;;;;;318.40;299.40;;;5.60;99.90;;;;;;5059308;28;20190;-81
2021/10/17 07:06:39;;;;;;;302.33;284.67;;;5.60;99.90;;;;;;5059182;28;20203;-82
2021/10/17 07:09:06;;;;;;;342.05;322.00;;;5.70;99.90;;;;;;5059122;28;20191;-82
2021/10/17 07:11:32;;;;;;;361.83;341.80;;;5.80;99.90;;;;;;5059048;28;20513;-82
2021/10/17 07:13:57;;;;;;;334.47;315.17;;;5.90;99.90;;;;;;5059586;28;20248;-82
2021/10/17 07:16:23;;;;;;;320.97;302.00;;;5.80;99.90;;;;;;5058867;28;20219;-82
2021/10/17 07:18:49;;;;;;;356.33;336.30;;;5.80;99.90;;;;;;5058249;28;20211;-82
2021/10/17 07:21:14;;;;;;;380.13;359.40;;;5.80;99.90;;;;;;5059058;28;20167;-82
2021/10/17 07:23:40;;;;;;;338.43;319.40;;;5.80;99.90;;;;;;5057787;28;20282;-82
2021/10/17 07:26:05;;;;;;;349.37;330.00;;;5.80;99.90;;;;;;5059398;28;20251;-82
2021/10/17 07:28:31;;;;;;;320.47;302.17;;;5.90;99.90;;;;;;5059054;28;20262;-82
2021/10/17 07:30:57;;;;;;;357.30;337.57;;;6.00;99.90;;;;;;5058219;28;20570;-82
2021/10/17 07:33:23;;;;;;;391.90;370.10;;;6.10;99.90;;;;;;5056126;28;20926;-82
2021/10/17 07:35:48;;;;;;;382.20;360.93;;;6.10;99.90;;;;;;5056456;28;20204;-82
2021/10/17 07:38:14;;;;;;;360.37;340.70;;;6.20;99.90;;;;;;5057857;28;20676;-82
2021/10/17 07:40:40;;;;;;;367.30;346.67;;;6.30;99.90;;;;;;5059532;28;20639;-82
2021/10/17 07:43:08;;;;;;;366.17;345.70;;;6.30;99.90;;;;;;5057854;28;20169;-80
2021/10/17 07:45:39;;;;;;;398.05;376.40;;;6.30;99.90;;;;;;5055600;28;20547;-81
2021/10/17 07:48:10;;;;;;;370.83;350.83;;;6.40;99.90;;;;;;5058141;28;20181;-82
2021/10/17 07:50:36;;;;;;;367.48;347.23;;;6.40;99.90;;;;;;5055862;28;20169;-82
2021/10/17 07:53:01;;;;;;;354.20;333.70;;;6.50;99.90;;;;;;5058346;28;20759;-82
2021/10/17 07:55:27;;;;;;;340.37;321.03;;;6.60;99.90;;;;;;5058171;28;20454;-82
2021/10/17 07:57:54;;;;;;;341.93;322.63;;;6.50;99.90;;;;;;5058277;28;20191;-82
2021/10/17 08:00:24;;;;;;;329.33;309.45;;;6.50;99.90;;;;;;5057418;28;20169;-82
2021/10/17 08:02:51;;;;;;;364.13;343.73;;;6.50;99.90;;;;;;5058566;28;20199;-82
2021/10/17 08:05:17;;;;;;;383.98;361.98;;;6.60;99.90;;;;;;5056959;28;20191;-82
2021/10/17 08:07:45;;;;;;;367.48;346.50;;;6.60;99.90;;;;;;5057774;28;20192;-82
2021/10/17 08:10:12;;;;;;;349.73;329.85;;;6.70;99.90;;;;;;5057333;28;20236;-82
2021/10/17 08:12:38;;;;;;;378.35;357.17;;;6.70;99.90;;;;;;5058089;28;20161;-82
2021/10/17 08:15:05;;;;;;;356.60;337.05;;;6.80;99.90;;;;;;5057845;28;20202;-82
2021/10/17 08:17:31;;;;;;;322.52;303.65;;;6.80;99.90;;;;;;5058086;28;20206;-82
2021/10/17 08:19:57;;;;;;;364.53;344.00;;;6.90;99.90;;;;;;5057564;28;20525;-82
2021/10/17 08:22:23;;;;;;;342.13;322.60;;;6.90;99.90;;;;;;5057994;28;20557;-82
2021/10/17 08:24:49;;;;;;;303.75;286.02;;;7.00;99.90;;;;;;5056612;28;20438;-82
2021/10/17 08:27:14;;;;;;;303.13;285.43;;;7.00;99.90;;;;;;5058160;28;20156;-82
2021/10/17 08:29:40;;;;;;;294.33;276.37;;;7.10;99.90;;;;;;5057912;28;20184;-82
2021/10/17 08:32:06;;;;;;;284.20;267.10;;;7.10;99.90;;;;;;5056173;28;20264;-82
2021/10/17 08:34:32;;;;;;;278.70;261.35;;;7.20;99.90;;;;;;5055767;28;20196;-82
2021/10/17 08:36:58;;;;;;;283.13;265.90;;;7.20;99.90;;;;;;5057736;28;20191;-82
2021/10/17 08:39:23;;;;;;;255.33;238.87;;;7.30;99.90;;;;;;5057735;28;20161;-82
2021/10/17 08:41:49;;;;;;;269.80;252.73;;;7.40;99.90;;;;;;5058358;28;20226;-82
2021/10/17 08:44:16;;;;;;;244.03;227.97;;;7.40;99.90;;;;;;5057357;28;20167;-82
2021/10/17 08:46:43;;;;;;;245.77;229.70;;;7.50;99.90;;;;;;5057455;28;20168;-82
2021/10/17 08:49:10;;;;;;;285.40;268.10;;;7.50;99.90;;;;;;5057963;28;20184;-82
2021/10/17 08:51:36;;;;;;;243.73;228.00;;;7.50;99.90;;;;;;5058201;28;20632;-82
2021/10/17 08:54:02;;;;;;;225.27;209.90;;;7.60;99.90;;;;;;5057694;28;20176;-82
2021/10/17 08:56:28;;;;;;;221.02;205.60;;;7.70;99.90;;;;;;5057483;28;20191;-81
2021/10/17 08:58:54;;;;;;;217.87;201.87;;;7.80;99.90;;;;;;5056182;28;20738;-82
2021/10/17 09:01:20;;;;;;;229.30;213.77;;;7.90;99.90;;;;;;5056329;28;20161;-82
2021/10/17 09:03:54;;;;;;;227.35;211.45;;;8.00;99.90;;;;;;5059881;28;20534;-82
2021/10/17 09:06:28;;;;;;;231.57;215.30;;;8.10;99.90;;;;;;5061596;28;20165;-82
2021/10/17 09:09:11;;;;;;;211.23;195.60;;;8.20;99.90;;;;;;5061155;28;20192;-82
2021/10/17 09:11:46;;;;;;;221.98;205.82;;;8.30;99.90;;;;;;5061382;28;20659;-82
2021/10/17 09:14:24;;;;;;;206.63;191.50;;;8.40;99.90;;;;;;5061594;28;20156;-82
2021/10/17 09:16:54;;;;;;;190.88;176.38;;;8.50;99.90;;;;;;5062170;28;20184;-82
2021/10/17 09:19:29;;;;;;;196.77;182.38;;;8.50;99.90;;;;;;5061432;28;20184;-82
2021/10/17 09:22:00;;;;;;;203.80;188.82;;;8.70;99.90;;;;;;5061213;28;20153;-82
2021/10/17 09:24:47;;;;;;;187.32;172.50;;;8.80;99.90;;;;;;5059952;28;20551;-82
2021/10/17 09:38:05;;;;;;;209.07;194.05;;;9.30;99.90;;;;;;4981211;28;20213;-82
2021/10/17 09:40:41;;;;;;;243.55;227.45;;;9.60;99.90;;;;;;5034130;28;20188;-82
2021/10/17 09:44:19;;;;;;;300.85;282.77;;;9.80;99.90;;;;;;5062477;28;20167;-81
2021/10/17 09:50:39;;;;;;;305.67;287.60;;;10.30;99.90;;;;;;4904664;29;20241;-82
2021/10/17 09:53:47;;;;;;;300.58;282.27;;;10.40;99.90;;;;;;4922527;28;20571;-82
2021/10/17 10:03:41;;;;;;;;;;;;;;;;;;;;;
2021/10/17 10:09:45;;;;;;;219.13;202.88;;;11.10;99.90;;;;;;4959674;29;20191;-82
2021/10/17 10:12:42;;;;;;;;;;;;;;;;;;;;;
2021/10/17 10:15:45;;;;;;;152.30;138.48;;;11.70;99.90;;;;;;5039298;28;20152;-82
2021/10/17 10:22:43;;;;;;;89.05;44.45;;;12.10;99.90;;;;;;5039959;28;20694;-81
2021/10/17 10:25:34;;;;;;;85.82;47.72;;;12.40;99.90;;;;;;4962786;28;20209;-81
2021/10/17 10:28:11;;;;;;;86.72;53.47;;;12.60;99.90;;;;;;4978866;28;20348;-81
2021/10/17 10:30:43;;;;;;;92.97;74.57;;;12.70;99.90;;;;;;5020730;28;20185;-81
2021/10/17 10:37:29;;;;;;;81.97;37.38;;;12.90;99.90;;;;;;4958956;29;20591;-81
2021/10/17 10:40:19;;;;;;;78.85;30.92;;;12.90;99.90;;;;;;4958900;28;20211;-81
2021/10/17 10:43:47;;;;;;;;;;;;;;;;;;;;;
2021/10/17 10:47:15;;;;;;;;;;;;;;;;;;;;;
2021/10/17 10:49:50;;;;;;;79.85;37.97;;;12.90;99.90;;;;;;4974817;28;20744;-81
2021/10/17 10:52:49;;;;;;;82.40;41.17;;;13.00;99.90;;;;;;5017740;28;20251;-81
2021/10/17 10:56:10;;;;;;;81.70;40.93;;;13.20;99.90;;;;;;5038667;28;20275;-81
2021/10/17 10:59:32;;;;;;;;;;;;;;;;;;;;;
2021/10/17 11:05:57;;;;;;;90.13;56.27;;;13.10;99.90;;;;;;4972324;28;20408;-81
2021/10/17 11:08:34;;;;;;;81.28;37.05;;;13.20;99.10;;;;;;5037303;28;20424;-81
2021/10/17 11:11:51;;;;;;;82.50;48.20;;;13.20;99.90;;;;;;5038330;28;20269;-80
2021/10/17 11:14:19;;;;;;;81.97;45.58;;;13.20;99.90;;;;;;5038628;28;20859;-81
2021/10/17 11:17:50;;;;;;;86.73;54.83;;;13.30;99.90;;;;;;5038850;28;20193;-81
2021/10/17 11:21:51;;;;;;;84.33;54.37;;;13.40;99.20;;;;;;4977179;28;20830;-81
2021/10/17 11:24:11;;;;;;;79.13;41.03;;;13.50;99.90;;;;;;5024292;28;20438;-81
2021/10/17 11:27:10;;;;;;;81.07;37.00;;;13.50;99.90;;;;;;5015629;28;20468;-81
2021/10/17 11:30:27;;;;;;;;;;;;;;;;;;;;;
2021/10/17 11:33:40;;;;;;;78.70;27.03;;;13.80;97.70;;;;;;5038415;28;20480;-81
2021/10/17 11:36:23;;;;;;;;;;;;;;;;;;;;;
2021/10/17 11:43:34;;;;;;;72.47;18.00;;;14.00;92.10;;;;;;4954813;29;21018;-81
2021/10/17 11:49:55;;;;;;;;;;;;;;;;;;;;;
2021/10/17 11:53:24;;;;;;;73.80;19.90;;;14.50;82.80;;;;;;4957898;29;20422;-81
2021/10/17 12:00:45;;;;;;;73.30;12.77;;;14.80;76.60;;;;;;5043497;23;20496;-81
2021/10/17 12:03:39;;;;;;;74.30;14.67;;;14.90;82.80;;;;;;5026842;28;20416;-81
2021/10/17 12:06:28;;;;;;;69.37;13.00;;;15.10;78.10;;;;;;4934094;28;20395;-81
2021/10/17 12:27:28;;;;;;;84.20;52.00;;;15.40;55.70;;;;;;4911861;29;20440;-80
2021/10/17 12:30:08;;;;;;;83.27;48.33;;;15.60;49.80;;;;;;4933446;29;20429;-81
2021/10/17 12:39:36;;;;;;;90.83;60.67;;;15.70;52.90;;;;;;5015238;28;20425;-80
2021/10/17 12:42:37;;;;;;;85.53;57.47;;;15.90;50.60;;;;;;5008006;28;20403;-81
2021/10/17 12:46:03;;;;;;;80.33;44.97;;;15.90;46.20;;;;;;4999688;28;20406;-81
2021/10/17 12:48:37;;;;;;;85.23;51.63;;;15.80;43.70;;;;;;5012974;28;20422;-81
2021/10/17 12:51:49;;;;;;;97.70;83.63;;;15.70;37.80;;;;;;5010360;28;20411;-81
2021/10/17 12:58:14;;;;;;;;;;;;;;;;;;;;;
2021/10/17 13:01:15;;;;;;;94.40;80.77;;;15.50;26.50;;;;;;5018342;28;20489;-81
2021/10/17 13:04:09;;;;;;;90.87;75.00;;;15.40;25.60;;;;;;5017775;28;20505;-81
2021/10/17 13:07:02;;;;;;;94.33;84.00;;;15.40;23.30;;;;;;5017727;28;20405;-81
2021/10/17 13:09:49;;;;;;;93.93;83.37;;;15.50;22.20;;;;;;5017706;28;20406;-81
2021/10/17 13:12:30;;;;;;;99.33;83.17;;;15.50;24.20;;;;;;5016911;28;20415;-81
2021/10/17 13:15:07;;;;;;;;;;;;;;;;;;;;;
2021/10/17 13:17:51;;;;;;;101.07;89.93;;;15.30;26.90;;;;;;5018504;28;20484;-81
2021/10/17 13:20:39;;;;;;;112.70;101.23;;;15.20;30.90;;;;;;5017678;28;20462;-81
2021/10/17 13:23:22;;;;;;;93.90;79.93;;;15.30;26.20;;;;;;5018154;28;20436;-81
2021/10/17 13:26:04;;;;;;;96.77;86.43;;;15.20;26.50;;;;;;5017651;28;20444;-81
2021/10/17 13:28:55;;;;;;;107.70;97.03;;;15.10;21.60;;;;;;5018066;28;20434;-81
2021/10/17 13:31:36;;;;;;;73.70;31.33;;;15.10;27.10;;;;;;5017902;28;20390;-80
2021/10/17 13:34:08;;;;;;;77.40;38.37;;;15.10;36.00;;;;;;5018208;28;20413;-81
2021/10/17 13:36:47;;;;;;;78.17;41.87;;;15.20;40.70;;;;;;5018109;28;20463;-80
2021/10/17 13:39:16;;;;;;;77.70;39.53;;;15.20;36.20;;;;;;5017690;28;20428;-80
2021/10/17 13:42:01;;;;;;;93.80;75.57;;;15.20;40.70;;;;;;5016573;28;20472;-80
2021/10/17 13:44:44;;;;;;;96.43;82.47;;;15.00;32.70;;;;;;5018023;28;20391;-81
2021/10/17 13:47:44;;;;;;;97.43;87.03;;;15.00;34.10;;;;;;5017500;28;20425;-81
2021/10/17 13:50:19;;;;;;;85.87;61.23;;;15.10;38.40;;;;;;4941049;29;20444;-80
2021/10/17 13:52:50;;;;;;;88.00;72.63;;;14.90;27.80;;;;;;5021888;28;20405;-81
2021/10/17 13:55:27;;;;;;;100.70;90.27;;;14.90;25.00;;;;;;5019764;28;20435;-81
2021/10/17 13:57:53;;;;;;;111.50;100.33;;;15.00;29.80;;;;;;5019838;28;20788;-81
2021/10/17 14:00:26;;;;;;;90.93;72.83;;;15.00;33.80;;;;;;5020483;28;20425;-81
2021/10/17 14:02:56;;;;;;;81.03;36.00;;;15.00;22.80;;;;;;5020157;28;20174;-80
2021/10/17 14:05:53;;;;;;;93.97;83.67;;;14.80;15.00;;;;;;5019373;28;20418;-80
2021/10/17 14:08:24;;;;;;;89.80;76.47;;;14.80;23.00;;;;;;5020103;28;20429;-81
2021/10/17 14:11:16;;;;;;;73.50;29.93;;;14.70;19.00;;;;;;5020517;28;20394;-81
2021/10/17 14:13:47;;;;;;;76.17;36.00;;;14.70;18.90;;;;;;5016123;28;20412;-81
2021/10/17 14:16:22;;;;;;;74.70;25.80;;;14.60;13.90;;;;;;5017873;28;20825;-81